createdAt,value
2023-01-23T00:01:17.162Z,98377.13
2023-01-23T00:03:43.838Z,98377.09
2023-01-23T00:06:16.051Z,98373.66
2023-01-23T00:08:44.310Z,98374.53
2023-01-23T00:11:14.309Z,98384.88
2023-01-23T00:13:40.871Z,98378.84
2023-01-23T00:16:09.032Z,98381.41
2023-01-23T00:18:35.993Z,98390.03
2023-01-23T00:21:11.640Z,98390.91
2023-01-23T00:23:38.415Z,98394.38
2023-01-23T00:26:06.942Z,98387.50
2023-01-23T00:28:34.847Z,98392.66
2023-01-23T00:31:05.500Z,98383.09
2023-01-23T00:33:32.290Z,98378.78
2023-01-23T00:35:58.904Z,98377.94
2023-01-23T00:38:25.572Z,98383.09
2023-01-23T00:40:52.257Z,98388.28
2023-01-23T00:43:18.808Z,98403.00
2023-01-23T00:45:45.371Z,98377.06
2023-01-23T00:48:12.756Z,98380.53
2023-01-23T00:50:39.413Z,98379.66
2023-01-23T00:53:06.182Z,98384.84
2023-01-23T00:55:32.776Z,98384.00
2023-01-23T00:58:00.248Z,98389.16
2023-01-23T01:00:26.904Z,98380.50
2023-01-23T01:02:53.528Z,98382.28
2023-01-23T01:05:20.212Z,98380.53
2023-01-23T01:07:47.976Z,98377.09
2023-01-23T01:10:15.227Z,98382.28
2023-01-23T01:12:41.829Z,98383.97
2023-01-23T01:15:10.002Z,98388.28
2023-01-23T01:17:37.314Z,98386.63
2023-01-23T01:20:05.545Z,98389.16
2023-01-23T01:22:32.227Z,98398.69
2023-01-23T01:24:58.933Z,98397.84
2023-01-23T01:27:25.917Z,98390.91
2023-01-23T01:29:52.674Z,98393.50
2023-01-23T01:32:19.321Z,98390.91
2023-01-23T01:34:47.846Z,98394.38
2023-01-23T01:37:15.759Z,98395.25
2023-01-23T01:39:42.601Z,98401.28
2023-01-23T01:42:09.174Z,98397.84
2023-01-23T01:45:00.296Z,98396.97
2023-01-23T01:47:27.449Z,98397.00
2023-01-23T01:49:59.314Z,98391.81
2023-01-23T01:52:26.905Z,98397.88
2023-01-23T01:55:01.895Z,98394.41
2023-01-23T01:57:43.552Z,98400.44
2023-01-23T02:00:15.651Z,98401.31
2023-01-23T02:02:51.511Z,98404.78
2023-01-23T02:05:27.008Z,98406.53
2023-01-23T02:08:03.655Z,98409.06
2023-01-23T02:10:30.406Z,98412.56
2023-01-23T02:13:36.100Z,98421.19
2023-01-23T02:16:07.121Z,98414.25
2023-01-23T02:18:36.905Z,98416.03
2023-01-23T02:21:06.602Z,98416.88
2023-01-23T02:24:04.527Z,98413.38
2023-01-23T02:26:37.622Z,98417.72
2023-01-23T02:29:05.697Z,98408.19
2023-01-23T02:31:42.911Z,98416.88
2023-01-23T02:34:13.008Z,98416.00
2023-01-23T02:36:42.733Z,98420.34
2023-01-23T02:39:10.739Z,98418.63
2023-01-23T02:41:50.556Z,98420.31
2023-01-23T02:44:33.468Z,98426.38
2023-01-23T02:47:11.642Z,98435.91
2023-01-23T02:49:39.959Z,98440.25
2023-01-23T02:52:07.880Z,98433.34
2023-01-23T02:54:36.191Z,98441.09
2023-01-23T02:57:02.913Z,98436.75
2023-01-23T02:59:49.266Z,98440.22
2023-01-23T03:02:15.962Z,98442.81
2023-01-23T03:04:42.594Z,98448.84
2023-01-23T03:07:09.229Z,98446.28
2023-01-23T03:09:35.966Z,98451.44
2023-01-23T03:12:02.907Z,98448.84
2023-01-23T03:14:31.703Z,98456.63
2023-01-23T03:16:59.176Z,98448.84
2023-01-23T03:19:31.289Z,98448.84
2023-01-23T03:21:58.945Z,98451.44
2023-01-23T03:24:25.537Z,98448.84
2023-01-23T03:26:52.602Z,98457.47
2023-01-23T03:29:43.812Z,98460.91
2023-01-23T03:32:15.030Z,98453.16
2023-01-23T03:34:42.882Z,98447.97
2023-01-23T03:37:11.665Z,98453.16
2023-01-23T03:39:57.960Z,98453.16
2023-01-23T03:42:25.697Z,98439.34
2023-01-23T03:44:55.206Z,98442.78
2023-01-23T03:47:26.357Z,98442.84
2023-01-23T03:49:53.946Z,98441.09
2023-01-23T03:52:20.500Z,98448.00
2023-01-23T03:54:47.245Z,98445.41
2023-01-23T03:57:14.073Z,98450.63
2023-01-23T04:00:00.923Z,98451.50
2023-01-23T04:02:40.698Z,98461.00
2023-01-23T04:05:09.813Z,98454.94
2023-01-23T04:07:36.440Z,98454.06
2023-01-23T04:10:03.713Z,98455.81
2023-01-23T04:12:30.282Z,98457.53
2023-01-23T04:14:57.278Z,98461.84
2023-01-23T04:17:23.934Z,98459.25
2023-01-23T04:19:51.205Z,98456.66
2023-01-23T04:22:17.847Z,98459.25
2023-01-23T04:24:47.464Z,98462.69
2023-01-23T04:27:14.079Z,98464.41
2023-01-23T04:29:40.888Z,98474.78
2023-01-23T04:32:09.951Z,98468.75
2023-01-23T04:34:41.403Z,98464.44
2023-01-23T04:37:08.076Z,98466.13
2023-01-23T04:39:34.679Z,98460.13
2023-01-23T04:42:01.663Z,98468.75
2023-01-23T04:44:48.484Z,98463.59
2023-01-23T04:47:37.924Z,98462.72
2023-01-23T04:50:09.395Z,98458.41
2023-01-23T04:52:37.238Z,98456.66
2023-01-23T04:55:04.370Z,98459.28
2023-01-23T04:57:31.282Z,98464.44
2023-01-23T05:00:08.293Z,98460.97
2023-01-23T05:02:35.871Z,98461.88
2023-01-23T05:05:02.811Z,98457.53
2023-01-23T05:07:29.487Z,98455.81
2023-01-23T05:10:09.690Z,98453.22
2023-01-23T05:12:37.048Z,98458.41
2023-01-23T05:15:04.663Z,98459.22
2023-01-23T05:17:35.055Z,98458.34
2023-01-23T05:20:02.427Z,98466.19
2023-01-23T05:22:29.038Z,98468.78
2023-01-23T05:24:55.634Z,98473.97
2023-01-23T05:27:24.694Z,98467.06
2023-01-23T05:29:52.341Z,98465.31
2023-01-23T05:32:23.157Z,98467.91
2023-01-23T05:35:08.183Z,98463.59
2023-01-23T05:37:36.133Z,98463.56
2023-01-23T05:40:08.207Z,98464.44
2023-01-23T05:43:07.159Z,98473.09
2023-01-23T05:45:59.829Z,98473.09
2023-01-23T05:48:33.363Z,98469.66
2023-01-23T05:51:03.439Z,98477.41
2023-01-23T05:53:30.423Z,98486.94
2023-01-23T05:55:57.303Z,98486.06
2023-01-23T05:58:24.029Z,98483.50
2023-01-23T06:00:50.758Z,98487.78
2023-01-23T06:03:35.825Z,98495.56
2023-01-23T06:06:17.442Z,98495.59
2023-01-23T06:08:44.035Z,98500.75
2023-01-23T06:11:10.653Z,98500.75
2023-01-23T06:13:37.303Z,98494.69
2023-01-23T06:16:04.335Z,98500.75
2023-01-23T06:18:31.190Z,98511.13
2023-01-23T06:21:01.347Z,98510.25
2023-01-23T06:23:29.148Z,98516.31
2023-01-23T06:26:03.516Z,98509.41
2023-01-23T06:28:31.410Z,98518.06
2023-01-23T06:31:02.581Z,98523.25
2023-01-23T06:33:42.248Z,98529.28
2023-01-23T06:36:11.320Z,98530.16
2023-01-23T06:38:38.321Z,98532.75
2023-01-23T06:41:08.929Z,98536.22
2023-01-23T06:43:38.008Z,98523.22
2023-01-23T06:46:11.645Z,98535.31
2023-01-23T06:48:38.969Z,98529.28
2023-01-23T06:51:06.385Z,98531.03
2023-01-23T06:53:33.683Z,98520.69
2023-01-23T06:56:02.232Z,98521.53
2023-01-23T06:58:32.988Z,98525.00
2023-01-23T07:00:59.806Z,98533.63
2023-01-23T07:03:46.539Z,98545.72
2023-01-23T07:06:14.627Z,98547.44
2023-01-23T07:08:42.441Z,98547.47
2023-01-23T07:11:09.783Z,98547.44
2023-01-23T07:13:37.139Z,98549.16
2023-01-23T07:16:04.951Z,98553.47
2023-01-23T07:18:32.751Z,98556.94
2023-01-23T07:21:03.471Z,98550.88
2023-01-23T07:23:30.124Z,98546.53
2023-01-23T07:26:00.920Z,98558.66
2023-01-23T07:28:27.906Z,98565.56
2023-01-23T07:30:54.547Z,98567.28
2023-01-23T07:33:21.257Z,98575.06
2023-01-23T07:35:47.836Z,98580.22
2023-01-23T07:38:14.399Z,98577.63
2023-01-23T07:40:42.906Z,98581.09
2023-01-23T07:43:09.752Z,98582.81
2023-01-23T07:45:36.315Z,98580.19
2023-01-23T07:48:02.933Z,98581.06
2023-01-23T07:50:29.527Z,98581.91
2023-01-23T07:52:56.934Z,98581.91
2023-01-23T07:55:23.568Z,98575.88
2023-01-23T07:57:50.195Z,98574.97
2023-01-23T08:00:17.143Z,98590.53
2023-01-23T08:02:43.858Z,98586.22
2023-01-23T08:05:10.617Z,98587.09
2023-01-23T08:07:37.177Z,98590.53
2023-01-23T08:10:03.975Z,98588.78
2023-01-23T08:12:30.554Z,98587.88
2023-01-23T08:14:57.106Z,98582.69
2023-01-23T08:17:23.725Z,98582.66
2023-01-23T08:19:50.286Z,98588.66
2023-01-23T08:22:16.947Z,98586.06
2023-01-23T08:24:43.525Z,98591.22
2023-01-23T08:27:10.529Z,98595.53
2023-01-23T08:29:37.147Z,98604.16
2023-01-23T08:32:03.895Z,98603.22
2023-01-23T08:34:30.507Z,98606.72
2023-01-23T08:36:57.057Z,98607.56
2023-01-23T08:39:24.738Z,98608.44
2023-01-23T08:41:51.357Z,98609.28
2023-01-23T08:44:18.056Z,98617.19
2023-01-23T08:46:46.188Z,98618.91
2023-01-23T08:49:13.620Z,98625.81
2023-01-23T08:51:40.180Z,98622.31
2023-01-23T08:54:06.887Z,98619.69
2023-01-23T08:56:33.536Z,98626.63
2023-01-23T08:59:00.093Z,98624.88
2023-01-23T09:01:27.776Z,98630.88
2023-01-23T09:03:54.461Z,98640.41
2023-01-23T09:06:22.778Z,98637.66
2023-01-23T09:08:50.065Z,98630.72
2023-01-23T09:11:19.845Z,98636.03
2023-01-23T09:13:47.420Z,98621.19
2023-01-23T09:16:14.497Z,98628.00
2023-01-23T09:18:41.152Z,98625.31
2023-01-23T09:21:10.246Z,98633.09
2023-01-23T09:23:37.652Z,98634.00
2023-01-23T09:26:09.306Z,98638.25
2023-01-23T09:28:37.352Z,98644.34
2023-01-23T09:31:08.857Z,98645.47
2023-01-23T09:33:35.926Z,98648.78
2023-01-23T09:36:03.843Z,98644.28
2023-01-23T09:38:30.436Z,98646.00
2023-01-23T09:40:59.740Z,98644.25
2023-01-23T09:43:32.050Z,98651.97
2023-01-23T09:46:04.730Z,98642.69
2023-01-23T09:48:42.742Z,98653.78
2023-01-23T09:51:28.228Z,98648.69
2023-01-23T09:54:01.591Z,98658.06
2023-01-23T09:56:36.138Z,98645.91
2023-01-23T09:59:13.466Z,98646.63
2023-01-23T10:01:40.590Z,98643.34
2023-01-23T10:04:11.503Z,98651.94
2023-01-23T10:06:55.651Z,98657.31
2023-01-23T10:09:44.807Z,98652.00
2023-01-23T10:12:29.226Z,98643.88
2023-01-23T10:14:58.589Z,98642.88
2023-01-23T10:17:52.873Z,98635.09
2023-01-23T10:20:41.431Z,98641.25
2023-01-23T10:23:30.556Z,98643.09
2023-01-23T10:25:58.492Z,98637.00
2023-01-23T10:28:42.561Z,98630.16
2023-01-23T10:31:21.775Z,98633.50
2023-01-23T10:34:03.447Z,98628.25
2023-01-23T10:36:54.691Z,98629.72
2023-01-23T10:39:32.820Z,98635.09
2023-01-23T10:42:02.317Z,98631.56
2023-01-23T10:44:29.747Z,98630.81
2023-01-23T10:47:01.646Z,98623.75
2023-01-23T10:49:37.736Z,98615.09
2023-01-23T10:52:05.686Z,98626.34
2023-01-23T10:54:45.924Z,98622.97
2023-01-23T10:57:12.406Z,98617.72
2023-01-23T10:59:51.141Z,98618.91
2023-01-23T11:02:22.182Z,98623.19
2023-01-23T11:04:51.930Z,98629.53
2023-01-23T11:07:36.538Z,98624.28
2023-01-23T11:10:12.099Z,98619.63
2023-01-23T11:13:21.303Z,98621.97
2023-01-23T11:15:48.642Z,98616.19
2023-01-23T11:18:39.684Z,98627.72
2023-01-23T11:21:06.271Z,98617.94
2023-01-23T11:23:34.486Z,98616.13
2023-01-23T11:26:03.227Z,98610.03
2023-01-23T11:28:35.119Z,98618.88
2023-01-23T11:31:16.683Z,98629.41
2023-01-23T11:33:53.173Z,98628.53
2023-01-23T11:36:19.785Z,98626.44
2023-01-23T11:38:57.674Z,98625.56
2023-01-23T11:41:30.713Z,98628.94
2023-01-23T11:43:57.469Z,98616.75
2023-01-23T11:46:35.525Z,98616.03
2023-01-23T11:49:11.583Z,98620.16
2023-01-23T11:51:49.505Z,98614.03
2023-01-23T11:54:50.859Z,98606.81
2023-01-23T11:57:29.340Z,98603.28
2023-01-23T12:00:12.127Z,98605.84
2023-01-23T12:02:53.684Z,98605.34
2023-01-23T12:05:38.751Z,98595.63
2023-01-23T12:08:36.254Z,98594.03
2023-01-23T12:11:16.652Z,98597.44
2023-01-23T12:13:45.953Z,98603.63
2023-01-23T12:16:18.421Z,98603.56
2023-01-23T12:19:03.041Z,98598.38
2023-01-23T12:21:48.085Z,98594.09
2023-01-23T12:24:39.492Z,98601.03
2023-01-23T12:27:18.816Z,98588.84
2023-01-23T12:30:03.227Z,98594.16
2023-01-23T12:32:52.449Z,98585.31
2023-01-23T12:35:55.010Z,98582.88
2023-01-23T12:38:31.517Z,98579.16
2023-01-23T12:41:17.048Z,98576.53
2023-01-23T12:44:11.239Z,98580.75
2023-01-23T12:46:50.935Z,98571.81
2023-01-23T12:49:50.842Z,98571.03
2023-01-23T12:52:27.247Z,98565.38
2023-01-23T12:55:15.720Z,98564.72
2023-01-23T12:58:00.157Z,98564.78
2023-01-23T13:00:53.000Z,98558.09
2023-01-23T13:03:54.074Z,98556.97
2023-01-23T13:06:58.303Z,98565.53
2023-01-23T13:09:32.516Z,98565.56
2023-01-23T13:12:05.301Z,98566.50
2023-01-23T13:14:43.453Z,98571.88
2023-01-23T13:17:37.884Z,98566.69
2023-01-23T13:21:11.635Z,98571.69
2023-01-23T13:23:38.386Z,98572.13
2023-01-23T13:26:20.646Z,98577.03
2023-01-23T13:28:53.902Z,98584.09
2023-01-23T13:31:32.859Z,98577.94
2023-01-23T13:34:14.524Z,98578.13
2023-01-23T13:36:50.482Z,98575.66
2023-01-23T13:39:17.092Z,98579.94
2023-01-23T13:41:49.692Z,98584.19
2023-01-23T13:44:21.349Z,98587.78
2023-01-23T14:22:05.321Z,98599.75
2023-01-23T14:24:47.432Z,98606.66
2023-01-23T14:30:23.916Z,98608.50
2023-01-23T14:32:50.572Z,98599.94
2023-01-23T14:35:19.477Z,98607.78
2023-01-23T14:37:46.965Z,98604.34
2023-01-23T14:40:27.230Z,98605.13
2023-01-23T14:43:02.314Z,98601.63
2023-01-23T14:45:33.802Z,98605.22
2023-01-23T14:48:07.612Z,98605.22
2023-01-23T14:50:35.033Z,98604.34
2023-01-23T14:53:04.793Z,98600.91
2023-01-23T14:55:36.363Z,98602.72
2023-01-23T14:58:04.022Z,98602.72
2023-01-23T15:00:31.170Z,98601.88
2023-01-23T15:02:57.745Z,98606.22
2023-01-23T15:05:27.363Z,98604.47
2023-01-23T15:07:58.040Z,98606.25
2023-01-23T15:10:29.671Z,98608.97
2023-01-23T15:13:12.071Z,98602.84
2023-01-23T15:15:44.433Z,98609.00
2023-01-23T15:18:28.739Z,98606.44
2023-01-23T15:20:58.509Z,98603.00
2023-01-23T15:23:25.604Z,98605.66
2023-01-23T15:26:14.225Z,98609.09
2023-01-23T15:28:40.985Z,98614.31
2023-01-23T15:31:30.448Z,98616.13
2023-01-23T15:34:16.580Z,98605.75
2023-01-23T15:36:54.392Z,98603.13
2023-01-23T15:39:29.095Z,98607.50
2023-01-23T15:42:05.228Z,98607.44
2023-01-23T15:44:32.982Z,98599.66
2023-01-23T15:47:03.973Z,98615.25
2023-01-23T15:49:32.719Z,98615.31
2023-01-23T15:52:21.459Z,98608.38
2023-01-23T15:54:51.179Z,98612.72
2023-01-23T15:57:18.080Z,98615.28
2023-01-23T15:59:44.664Z,98616.16
2023-01-23T16:02:30.748Z,98613.56
2023-01-23T16:04:58.458Z,98617.06
2023-01-23T16:07:26.933Z,98616.19
2023-01-23T16:09:55.065Z,98617.94
2023-01-23T16:12:29.512Z,98622.28
2023-01-23T16:14:57.098Z,98617.94
2023-01-23T16:17:23.906Z,98617.97
2023-01-23T16:19:50.737Z,98627.47
2023-01-23T16:22:29.361Z,98621.44
2023-01-23T16:24:57.558Z,98622.28
2023-01-23T16:27:27.598Z,98628.41
2023-01-23T16:29:55.660Z,98636.16
2023-01-23T16:32:22.856Z,98631.81
2023-01-23T16:34:49.791Z,98623.16
2023-01-23T16:37:18.793Z,98630.97
2023-01-23T16:39:46.421Z,98630.09
2023-01-23T16:42:19.972Z,98630.97
2023-01-23T16:44:46.658Z,98638.78
2023-01-23T16:47:13.538Z,98648.28
2023-01-23T16:49:51.527Z,98646.53
2023-01-23T16:52:19.261Z,98641.38
2023-01-23T16:54:45.912Z,98643.94
2023-01-23T16:57:20.040Z,98643.06
2023-01-23T16:59:48.182Z,98637.88
2023-01-23T17:02:29.187Z,98643.94
2023-01-23T17:04:55.891Z,98645.72
2023-01-23T17:07:22.617Z,98652.63
2023-01-23T17:09:49.371Z,98650.06
2023-01-23T17:12:25.030Z,98661.28
2023-01-23T17:14:52.653Z,98649.16
2023-01-23T17:17:28.816Z,98647.44
2023-01-23T17:19:55.618Z,98656.97
2023-01-23T17:22:26.324Z,98647.41
2023-01-23T17:24:53.312Z,98667.31
2023-01-23T17:27:19.884Z,98643.09
2023-01-23T17:29:46.541Z,98636.19
2023-01-23T17:32:26.705Z,98651.75
2023-01-23T17:34:53.421Z,98646.56
2023-01-23T17:37:22.656Z,98643.97
2023-01-23T17:39:49.404Z,98650.06
2023-01-23T17:42:16.045Z,98656.94
2023-01-23T17:44:42.647Z,98647.47
2023-01-23T17:47:12.177Z,98643.97
2023-01-23T17:49:39.437Z,98646.56
2023-01-23T17:52:06.564Z,98633.63
2023-01-23T17:54:33.223Z,98625.84
2023-01-23T17:56:59.973Z,98624.09
2023-01-23T17:59:27.423Z,98631.06
2023-01-23T18:01:54.376Z,98612.03
2023-01-23T18:04:24.432Z,98609.41
2023-01-23T18:06:51.243Z,98605.09
2023-01-23T18:09:18.950Z,98609.44
2023-01-23T18:11:52.397Z,98595.59
2023-01-23T18:14:51.454Z,98599.94
2023-01-23T18:17:37.447Z,98595.59
2023-01-23T18:20:16.301Z,98609.44
2023-01-23T18:22:43.116Z,98605.97
2023-01-23T18:25:14.898Z,98595.59
2023-01-23T18:27:42.207Z,98598.19
2023-01-23T18:30:21.610Z,98596.47
2023-01-23T18:33:40.081Z,98612.06
2023-01-23T18:36:26.036Z,98606.84
2023-01-23T18:39:27.539Z,98618.94
2023-01-23T18:42:24.978Z,98615.50
2023-01-23T18:44:56.683Z,98612.84
2023-01-23T18:47:25.408Z,98618.06
2023-01-23T18:49:52.815Z,98617.19
2023-01-23T18:52:30.891Z,98613.75
2023-01-23T18:55:05.333Z,98617.19
2023-01-23T18:58:09.359Z,98618.91
2023-01-23T19:00:52.807Z,98622.38
2023-01-23T19:03:28.238Z,98612.88
2023-01-23T19:05:55.035Z,98611.16
2023-01-23T19:08:30.817Z,98618.91
2023-01-23T19:11:06.042Z,98619.81
2023-01-23T19:13:44.784Z,98618.97
2023-01-23T19:16:30.516Z,98646.63
2023-01-23T19:19:25.138Z,98627.56
2023-01-23T19:21:51.974Z,98637.09
2023-01-23T19:24:19.612Z,98636.22
2023-01-23T19:26:47.099Z,98625.81
2023-01-23T19:29:21.977Z,98633.56
2023-01-23T19:32:06.662Z,98636.22
2023-01-23T19:34:34.211Z,98639.69
2023-01-23T19:37:00.903Z,98628.44
2023-01-23T19:39:27.448Z,98637.97
2023-01-23T19:41:54.417Z,98645.75
2023-01-23T19:44:24.065Z,98666.53
2023-01-23T19:46:51.904Z,98651.81
2023-01-23T19:49:18.563Z,98635.34
2023-01-23T19:51:45.256Z,98635.31
2023-01-23T19:54:14.382Z,98644.00
2023-01-23T19:56:42.285Z,98633.63
2023-01-23T19:59:09.328Z,98630.16
2023-01-23T20:01:40.234Z,98640.56
2023-01-23T20:04:17.651Z,98628.44
2023-01-23T20:06:45.609Z,98645.75
2023-01-23T20:09:17.517Z,98649.22
2023-01-23T20:11:45.046Z,98657.84
2023-01-23T20:14:12.487Z,98648.38
2023-01-23T20:16:41.003Z,98652.66
2023-01-23T20:19:07.747Z,98652.66
2023-01-23T20:21:34.474Z,98644.91
2023-01-23T20:24:01.112Z,98646.66
2023-01-23T20:26:27.739Z,98644.91
2023-01-23T20:28:54.375Z,98639.72
2023-01-23T20:31:22.257Z,98644.91
2023-01-23T20:33:49.278Z,98640.56
2023-01-23T20:36:16.113Z,98649.22
2023-01-23T20:38:43.205Z,98648.34
2023-01-23T20:41:14.722Z,98652.69
2023-01-23T20:43:45.024Z,98645.75
2023-01-23T20:46:13.788Z,98643.16
2023-01-23T20:48:43.887Z,98644.88
2023-01-23T20:51:11.254Z,98650.06
2023-01-23T20:53:39.878Z,98655.25
2023-01-23T20:56:09.652Z,98657.00
2023-01-23T20:58:58.411Z,98653.50
2023-01-23T21:01:28.100Z,98658.72
2023-01-23T21:03:54.847Z,98664.75
2023-01-23T21:06:22.250Z,98664.75
2023-01-23T21:08:49.119Z,98668.19
2023-01-23T21:11:18.596Z,98659.50
2023-01-23T21:13:51.142Z,98654.34
2023-01-23T21:16:18.875Z,98657.81
2023-01-23T21:18:47.113Z,98658.69
2023-01-23T21:21:20.241Z,98662.16
2023-01-23T21:23:49.305Z,98661.28
2023-01-23T21:26:22.434Z,98659.56
2023-01-23T21:28:51.255Z,98661.28
2023-01-23T21:31:22.477Z,98663.03
2023-01-23T21:33:49.357Z,98674.22
2023-01-23T21:36:19.861Z,98672.53
2023-01-23T21:38:47.126Z,98681.16
2023-01-23T21:41:13.762Z,98682.03
2023-01-23T21:43:40.640Z,98675.09
2023-01-23T21:46:07.378Z,98681.16
2023-01-23T21:48:34.993Z,98689.81
2023-01-23T21:51:08.405Z,98689.81
2023-01-23T21:53:40.755Z,98686.38
2023-01-23T21:56:08.135Z,98689.81
2023-01-23T21:58:35.021Z,98687.22
2023-01-23T22:01:25.187Z,98686.34
2023-01-23T22:03:52.711Z,98688.94
2023-01-23T22:06:19.615Z,98684.63
2023-01-23T22:08:46.516Z,98684.63
2023-01-23T22:11:13.239Z,98682.94
2023-01-23T22:13:40.156Z,98684.63
2023-01-23T22:16:07.348Z,98690.69
2023-01-23T22:18:34.151Z,98696.75
2023-01-23T22:21:03.547Z,98694.13
2023-01-23T22:23:31.723Z,98693.28
2023-01-23T22:26:01.244Z,98689.84
2023-01-23T22:28:28.321Z,98685.50
2023-01-23T22:30:55.921Z,98672.53
2023-01-23T22:33:24.058Z,98684.66
2023-01-23T22:35:52.288Z,98689.84
2023-01-23T22:38:18.868Z,98693.28
2023-01-23T22:40:45.452Z,98687.25
2023-01-23T22:43:12.036Z,98683.78
2023-01-23T22:45:38.653Z,98688.13
2023-01-23T22:48:05.513Z,98686.41
2023-01-23T22:50:32.079Z,98687.25
2023-01-23T22:52:58.660Z,98690.72
2023-01-23T22:55:25.222Z,98691.56
2023-01-23T22:57:53.261Z,98690.72
2023-01-23T23:00:20.601Z,98683.78
2023-01-23T23:02:47.492Z,98678.59
2023-01-23T23:05:14.281Z,98682.06
2023-01-23T23:07:40.848Z,98676.00
2023-01-23T23:10:09.452Z,98677.72
2023-01-23T23:12:36.004Z,98681.19
2023-01-23T23:15:03.226Z,98688.13
2023-01-23T23:17:30.244Z,98682.94
2023-01-23T23:19:56.885Z,98692.44
2023-01-23T23:22:23.579Z,98683.81
2023-01-23T23:24:50.161Z,98684.66
2023-01-23T23:27:16.767Z,98683.78
2023-01-23T23:29:43.343Z,98680.31
2023-01-23T23:32:09.994Z,98688.13
2023-01-23T23:34:37.451Z,98690.72
2023-01-23T23:37:04.372Z,98689.84
2023-01-23T23:39:30.978Z,98687.25
2023-01-23T23:41:58.560Z,98693.31
2023-01-23T23:44:25.245Z,98686.38
2023-01-23T23:46:51.799Z,98684.66
2023-01-23T23:49:18.409Z,98690.72
2023-01-23T23:51:44.963Z,98696.81
2023-01-23T23:54:11.503Z,98682.97
2023-01-23T23:56:38.066Z,98684.69
2023-01-23T23:59:04.638Z,98683.84
